Time;durP1;ratioP1;P1;durP2;ratioP2;P2;SDS_P1;SDS_P2;PMS_P1;PMS_P2;Temp;Humidity;BMP_temperature;BMP_pressure;BME280_temperature;BME280_humidity;BME280_pressure;Samples;Min_cycle;Max_cycle;Signal;HPM_P1;HPM_P2
2022/04/05 00:00:52;;;;;;;8.95;2.90;;;7.10;99.90;;;;;;4998411;28;20038;-74
2022/04/05 00:03:18;;;;;;;11.25;3.10;;;7.30;99.90;;;;;;4998328;28;20113;-74
2022/04/05 00:05:43;;;;;;;8.73;2.65;;;7.10;99.90;;;;;;4981230;28;20062;-73
2022/04/05 00:08:09;;;;;;;9.80;2.75;;;7.10;99.90;;;;;;4998183;28;20485;-72
2022/04/05 00:10:36;;;;;;;13.10;2.92;;;7.10;99.90;;;;;;4998053;28;20134;-72
2022/04/05 00:13:05;;;;;;;14.02;3.15;;;7.10;99.90;;;;;;4998178;28;20413;-73
2022/04/05 00:15:32;;;;;;;9.82;2.78;;;7.20;99.90;;;;;;4998134;28;20057;-73
2022/04/05 00:17:58;;;;;;;9.68;2.70;;;7.20;99.90;;;;;;4997900;28;20065;-75
2022/04/05 00:20:23;;;;;;;10.00;3.10;;;7.20;99.90;;;;;;4998107;28;20049;-74
2022/04/05 00:22:50;;;;;;;15.85;2.95;;;7.20;99.90;;;;;;4997861;28;20046;-72
2022/04/05 00:25:16;;;;;;;10.50;2.92;;;7.20;99.90;;;;;;4981142;28;20148;-72
2022/04/05 00:27:41;;;;;;;9.90;2.58;;;7.10;99.90;;;;;;4997253;28;20103;-74
2022/04/05 00:30:07;;;;;;;15.07;2.67;;;7.10;99.90;;;;;;4997774;28;20085;-73
2022/04/05 00:32:33;;;;;;;10.75;2.60;;;7.10;99.90;;;;;;4994877;28;20054;-74
2022/04/05 00:34:59;;;;;;;13.10;2.35;;;7.10;99.90;;;;;;4997346;28;20355;-73
2022/04/05 00:37:24;;;;;;;8.18;2.60;;;7.10;99.90;;;;;;4997741;28;20097;-73
2022/04/05 00:39:50;;;;;;;15.73;2.42;;;7.10;99.90;;;;;;4997349;28;20375;-73
2022/04/05 00:42:16;;;;;;;12.95;2.78;;;7.10;99.90;;;;;;4997735;28;20070;-74
2022/04/05 00:44:42;;;;;;;9.75;1.90;;;7.10;99.90;;;;;;4997806;28;20344;-72
2022/04/05 00:47:16;;;;;;;14.00;2.53;;;7.10;99.90;;;;;;4996536;28;20057;-73
2022/04/05 00:49:44;;;;;;;11.85;2.47;;;7.10;99.90;;;;;;4979720;28;20489;-72
2022/04/05 00:52:10;;;;;;;12.93;3.08;;;7.10;99.90;;;;;;4997382;28;20374;-74
2022/04/05 00:54:37;;;;;;;15.65;2.42;;;7.10;99.90;;;;;;4997296;28;20050;-73
2022/04/05 00:57:08;;;;;;;12.18;2.10;;;7.10;99.90;;;;;;4996863;28;20035;-74
2022/04/05 00:59:35;;;;;;;10.05;1.77;;;7.00;99.90;;;;;;4980072;28;20062;-73
2022/04/05 01:02:01;;;;;;;12.70;2.28;;;7.00;99.90;;;;;;4997133;28;20257;-74
2022/04/05 01:04:29;;;;;;;14.52;2.50;;;7.00;99.90;;;;;;4997049;28;20111;-73
2022/04/05 01:06:54;;;;;;;9.27;2.55;;;7.00;99.90;;;;;;4996984;28;20047;-73
2022/04/05 01:09:20;;;;;;;13.57;2.15;;;7.00;99.90;;;;;;4997317;28;20061;-73
2022/04/05 01:11:46;;;;;;;10.15;2.20;;;7.00;99.90;;;;;;4997399;28;20439;-73
2022/04/05 01:14:12;;;;;;;11.23;2.25;;;7.00;99.90;;;;;;4997204;28;20053;-74
2022/04/05 01:16:41;;;;;;;13.32;2.13;;;7.00;99.90;;;;;;4996900;28;20050;-72
2022/04/05 01:19:08;;;;;;;10.52;2.67;;;7.00;99.90;;;;;;4996706;28;20058;-74
2022/04/05 01:21:37;;;;;;;12.95;2.40;;;7.00;99.90;;;;;;4997089;28;20129;-73
2022/04/05 01:24:14;;;;;;;12.23;2.47;;;7.00;99.90;;;;;;4997213;28;20046;-75
2022/04/05 01:26:49;;;;;;;12.50;2.10;;;7.00;99.90;;;;;;4996633;28;20108;-74
2022/04/05 01:29:17;;;;;;;12.45;2.00;;;6.90;99.90;;;;;;4996542;28;20053;-74
2022/04/05 01:31:48;;;;;;;9.10;2.03;;;6.90;99.90;;;;;;4978662;28;20072;-73
2022/04/05 01:34:18;;;;;;;9.82;2.08;;;6.90;99.90;;;;;;4996498;28;20142;-74
2022/04/05 01:36:49;;;;;;;10.32;2.00;;;6.90;99.90;;;;;;4996780;28;20050;-74
2022/04/05 01:39:15;;;;;;;10.32;2.28;;;6.90;99.90;;;;;;4979572;28;20081;-74
2022/04/05 01:41:41;;;;;;;12.60;2.38;;;6.90;99.90;;;;;;4996114;28;20057;-74
2022/04/05 01:44:08;;;;;;;9.65;2.38;;;6.90;99.90;;;;;;4979023;28;20409;-72
2022/04/05 01:46:34;;;;;;;15.05;2.15;;;6.90;99.90;;;;;;4979026;28;20049;-73
2022/04/05 01:49:00;;;;;;;12.85;2.33;;;6.90;99.90;;;;;;4996221;28;20054;-73
2022/04/05 01:51:26;;;;;;;11.73;2.03;;;6.90;99.90;;;;;;4996378;28;20046;-73
2022/04/05 01:53:53;;;;;;;9.10;1.92;;;6.90;99.90;;;;;;4996127;28;20355;-74
2022/04/05 01:56:18;;;;;;;11.80;1.98;;;6.90;99.90;;;;;;4979457;28;20038;-74
2022/04/05 01:58:44;;;;;;;13.77;2.50;;;6.90;99.90;;;;;;4996099;28;20589;-73
2022/04/05 02:01:10;;;;;;;10.40;2.50;;;7.20;99.90;;;;;;4996081;28;20042;-75
2022/04/05 02:03:35;;;;;;;11.57;2.45;;;6.90;99.90;;;;;;4996491;28;20126;-72
2022/04/05 02:06:01;;;;;;;10.65;2.30;;;6.90;99.90;;;;;;4995786;28;20046;-73
2022/04/05 02:08:26;;;;;;;11.00;2.13;;;7.00;99.90;;;;;;4996153;28;20053;-72
2022/04/05 02:10:52;;;;;;;9.35;2.17;;;6.80;99.90;;;;;;4995775;28;20052;-73
2022/04/05 02:13:17;;;;;;;15.20;2.53;;;6.90;99.90;;;;;;4994643;28;20113;-73
2022/04/05 02:15:43;;;;;;;11.80;1.92;;;6.80;99.90;;;;;;4978393;28;20054;-74
2022/04/05 02:18:09;;;;;;;12.85;2.55;;;6.90;99.90;;;;;;4978940;28;20366;-73
2022/04/05 02:20:34;;;;;;;14.65;2.70;;;6.80;99.90;;;;;;4979117;28;20042;-74
2022/04/05 02:23:00;;;;;;;9.25;2.10;;;6.80;99.90;;;;;;4996004;28;20042;-73
2022/04/05 02:25:26;;;;;;;16.02;2.80;;;6.80;99.90;;;;;;4978615;28;20452;-73
2022/04/05 02:27:52;;;;;;;13.68;2.35;;;6.80;99.90;;;;;;4995010;28;20050;-74
2022/04/05 02:30:18;;;;;;;14.52;2.42;;;6.80;99.90;;;;;;4978761;28;20034;-73
2022/04/05 02:32:44;;;;;;;11.88;2.92;;;6.80;99.90;;;;;;4995644;28;20057;-73
2022/04/05 02:35:11;;;;;;;14.85;2.55;;;6.80;99.90;;;;;;4995629;28;20049;-73
2022/04/05 02:37:37;;;;;;;11.05;3.17;;;6.80;99.90;;;;;;4978865;28;20047;-73
2022/04/05 02:40:03;;;;;;;12.65;2.33;;;6.80;99.90;;;;;;4995448;28;20085;-73
2022/04/05 02:42:29;;;;;;;17.95;2.80;;;6.80;99.90;;;;;;4978210;28;20054;-74
2022/04/05 02:44:54;;;;;;;13.80;2.55;;;6.80;99.90;;;;;;4995174;28;20366;-74
2022/04/05 02:47:20;;;;;;;16.13;2.63;;;6.80;99.90;;;;;;4995427;28;20431;-74
2022/04/05 02:49:46;;;;;;;12.23;3.08;;;6.80;99.90;;;;;;4978721;28;20362;-74
2022/04/05 02:52:13;;;;;;;19.50;2.58;;;6.80;99.90;;;;;;4995665;28;20518;-74
2022/04/05 02:54:38;;;;;;;11.18;2.63;;;6.80;99.90;;;;;;4995212;28;20045;-75
2022/04/05 02:57:04;;;;;;;16.58;2.97;;;6.80;99.90;;;;;;4995211;28;20054;-73
2022/04/05 02:59:29;;;;;;;18.77;3.03;;;6.80;99.90;;;;;;4995084;28;20057;-73
2022/04/05 03:01:55;;;;;;;13.73;2.65;;;6.80;99.90;;;;;;4978063;28;20126;-73
2022/04/05 03:04:20;;;;;;;15.13;3.20;;;6.80;99.90;;;;;;4992641;28;20049;-75
2022/04/05 03:06:46;;;;;;;16.73;2.90;;;6.80;99.90;;;;;;4978291;28;20054;-74
2022/04/05 03:09:12;;;;;;;15.45;3.20;;;6.80;99.90;;;;;;4978068;28;20113;-74
2022/04/05 03:11:37;;;;;;;22.27;3.40;;;6.80;99.90;;;;;;4978106;28;20042;-75
2022/04/05 03:14:03;;;;;;;17.50;3.05;;;6.80;99.90;;;;;;4995222;28;20057;-74
2022/04/05 03:16:29;;;;;;;18.30;3.00;;;6.80;99.90;;;;;;4978660;28;20054;-74
2022/04/05 03:18:54;;;;;;;15.90;2.88;;;6.90;99.90;;;;;;4995295;28;20108;-75
2022/04/05 03:21:20;;;;;;;19.88;3.10;;;6.80;99.90;;;;;;4995329;28;20046;-74
2022/04/05 03:23:45;;;;;;;23.10;3.72;;;6.80;99.90;;;;;;4995303;28;20050;-73
2022/04/05 03:26:11;;;;;;;17.10;2.85;;;6.80;99.90;;;;;;4994741;28;20065;-75
2022/04/05 03:28:37;;;;;;;18.95;2.85;;;6.80;99.90;;;;;;4978161;28;20070;-73
2022/04/05 03:31:02;;;;;;;18.15;3.20;;;6.90;99.90;;;;;;4994734;28;20058;-73
2022/04/05 03:33:29;;;;;;;16.90;2.92;;;6.90;99.90;;;;;;4995341;28;20129;-73
2022/04/05 03:35:56;;;;;;;18.17;2.50;;;6.90;99.90;;;;;;4995896;28;20058;-73
2022/04/05 03:38:22;;;;;;;22.33;3.92;;;6.90;99.90;;;;;;4977920;28;20046;-73
2022/04/05 03:40:47;;;;;;;23.08;2.92;;;6.90;99.90;;;;;;4994959;28;20038;-74
2022/04/05 03:43:13;;;;;;;23.15;3.00;;;6.90;99.90;;;;;;4994991;28;20101;-73
2022/04/05 03:45:39;;;;;;;17.42;2.85;;;6.90;99.90;;;;;;4995225;28;20050;-74
2022/04/05 03:48:06;;;;;;;14.32;2.47;;;6.80;99.90;;;;;;4995044;28;20089;-73
2022/04/05 03:50:31;;;;;;;19.70;3.55;;;6.80;99.90;;;;;;4995217;28;20057;-73
2022/04/05 03:52:59;;;;;;;26.75;3.50;;;6.80;99.90;;;;;;4994754;28;20439;-75
2022/04/05 03:55:25;;;;;;;19.95;3.20;;;6.90;99.90;;;;;;4995987;28;20050;-73
2022/04/05 03:57:51;;;;;;;20.35;3.20;;;6.80;99.90;;;;;;4998121;28;20054;-71
2022/04/05 04:00:17;;;;;;;18.77;3.30;;;6.80;99.90;;;;;;4982192;28;20056;-73
2022/04/05 04:02:43;;;;;;;20.10;3.20;;;6.80;99.90;;;;;;4998387;28;20200;-73
2022/04/05 04:05:09;;;;;;;27.08;3.15;;;6.70;99.90;;;;;;4982153;28;20089;-74
2022/04/05 04:07:39;;;;;;;23.60;3.45;;;6.70;99.90;;;;;;4997785;28;20137;-72
2022/04/05 04:10:05;;;;;;;29.05;4.05;;;6.80;99.90;;;;;;4997811;28;20450;-72
2022/04/05 04:12:31;;;;;;;25.30;4.05;;;6.70;99.90;;;;;;4998124;28;20039;-72
2022/04/05 04:14:57;;;;;;;27.35;3.83;;;6.70;99.90;;;;;;4980083;28;20065;-72
2022/04/05 04:17:25;;;;;;;23.17;4.15;;;6.80;99.90;;;;;;4977953;28;20545;-72
2022/04/05 04:19:51;;;;;;;17.23;2.80;;;6.70;99.90;;;;;;4997971;28;20132;-73
2022/04/05 04:22:17;;;;;;;19.40;3.30;;;6.70;99.90;;;;;;4997995;28;20085;-72
2022/04/05 04:24:42;;;;;;;17.80;2.50;;;6.70;99.90;;;;;;4998050;28;20121;-75
2022/04/05 04:27:11;;;;;;;27.58;3.38;;;6.70;99.90;;;;;;4998500;28;20056;-73
2022/04/05 04:29:37;;;;;;;15.77;2.40;;;6.70;99.90;;;;;;4997782;28;20054;-75
2022/04/05 04:32:03;;;;;;;20.48;3.03;;;6.70;99.90;;;;;;4997806;28;20057;-72
2022/04/05 04:34:28;;;;;;;18.92;2.90;;;6.70;99.90;;;;;;4997543;28;20101;-73
2022/04/05 04:36:54;;;;;;;26.73;3.25;;;6.70;99.90;;;;;;4997876;28;20050;-73
2022/04/05 04:39:20;;;;;;;20.88;3.55;;;6.60;99.90;;;;;;4997877;28;20034;-73
2022/04/05 04:41:45;;;;;;;19.00;2.80;;;6.60;99.90;;;;;;4996712;28;20046;-71
2022/04/05 04:44:11;;;;;;;21.70;3.17;;;6.90;99.90;;;;;;4997290;28;20038;-73
2022/04/05 04:46:36;;;;;;;22.58;2.80;;;6.60;99.90;;;;;;4997129;28;20134;-73
2022/04/05 04:49:02;;;;;;;21.75;2.97;;;6.60;99.90;;;;;;4997832;28;20054;-72
2022/04/05 04:51:28;;;;;;;13.55;2.45;;;6.60;99.90;;;;;;4997271;28;20045;-69
2022/04/05 04:53:53;;;;;;;14.32;3.10;;;6.60;99.90;;;;;;4997200;28;20042;-69
2022/04/05 04:56:19;;;;;;;25.13;3.70;;;6.60;99.90;;;;;;4997182;28;20057;-73
2022/04/05 04:58:44;;;;;;;21.38;3.08;;;6.60;99.90;;;;;;4989332;28;20059;-74
2022/04/05 05:01:10;;;;;;;17.90;3.28;;;6.60;99.90;;;;;;4996850;28;20070;-71
2022/04/05 05:03:37;;;;;;;29.33;3.92;;;6.60;99.90;;;;;;4980259;28;20038;-73
2022/04/05 05:06:04;;;;;;;21.08;3.28;;;6.60;99.90;;;;;;4979122;28;20046;-75
2022/04/05 05:08:30;;;;;;;21.88;4.20;;;6.60;99.90;;;;;;4997218;28;20046;-74
2022/04/05 05:10:56;;;;;;;17.75;3.28;;;6.60;99.90;;;;;;4997204;28;20057;-73
2022/04/05 05:13:22;;;;;;;21.42;3.65;;;6.80;99.90;;;;;;4996717;28;20129;-71
2022/04/05 05:15:47;;;;;;;15.32;3.58;;;6.90;99.90;;;;;;4979307;28;20109;-72
2022/04/05 05:18:13;;;;;;;18.88;3.45;;;6.70;99.90;;;;;;4996466;28;20042;-73
2022/04/05 05:20:39;;;;;;;19.27;3.38;;;6.70;99.90;;;;;;4996631;28;20061;-72
2022/04/05 05:23:05;;;;;;;14.32;3.35;;;6.60;99.90;;;;;;4996635;28;20050;-73
2022/04/05 05:25:32;;;;;;;15.70;3.53;;;6.60;99.90;;;;;;4996152;28;20362;-74
2022/04/05 05:27:57;;;;;;;26.95;3.53;;;6.70;99.90;;;;;;4992970;28;20130;-76
2022/04/05 05:30:23;;;;;;;14.35;2.70;;;6.70;99.90;;;;;;4980578;28;20074;-71
2022/04/05 05:32:49;;;;;;;12.63;2.78;;;6.70;99.90;;;;;;4974423;28;20092;-72
2022/04/05 05:35:17;;;;;;;15.73;3.00;;;6.70;99.90;;;;;;4992680;28;20139;-71
2022/04/05 05:37:43;;;;;;;20.45;3.58;;;6.70;99.90;;;;;;4989241;28;20422;-72
2022/04/05 05:40:10;;;;;;;21.88;3.60;;;6.70;99.90;;;;;;4996699;28;20046;-70
2022/04/05 05:42:47;;;;;;;18.25;2.90;;;6.80;99.90;;;;;;4995726;28;20077;-72
2022/04/05 05:45:14;;;;;;;15.55;3.08;;;6.80;99.90;;;;;;4993960;28;20123;-71
2022/04/05 05:47:39;;;;;;;8.93;2.55;;;6.80;99.90;;;;;;4995423;28;20058;-73
2022/04/05 05:50:05;;;;;;;23.63;3.80;;;6.80;99.90;;;;;;4996060;28;20344;-72
2022/04/05 05:52:31;;;;;;;17.13;3.28;;;6.90;99.90;;;;;;4996066;28;20042;-72
2022/04/05 05:54:56;;;;;;;20.75;3.22;;;6.90;99.90;;;;;;4995518;28;20189;-73
2022/04/05 05:57:22;;;;;;;18.58;3.50;;;6.90;99.90;;;;;;4995693;28;20489;-72
2022/04/05 05:59:47;;;;;;;22.30;4.32;;;6.90;99.90;;;;;;4995604;28;20049;-70
2022/04/05 06:02:13;;;;;;;20.38;3.67;;;6.90;99.90;;;;;;4994887;28;20053;-73
2022/04/05 06:04:39;;;;;;;21.67;4.85;;;6.90;99.90;;;;;;4991789;28;20065;-74
2022/04/05 06:07:04;;;;;;;15.32;4.07;;;7.00;99.90;;;;;;4992893;28;20056;-72
2022/04/05 06:09:30;;;;;;;16.15;4.35;;;7.00;99.90;;;;;;4994613;28;20399;-72
2022/04/05 06:11:55;;;;;;;16.52;3.85;;;7.00;99.90;;;;;;4987796;28;20125;-73
2022/04/05 06:14:21;;;;;;;14.13;4.38;;;7.00;99.90;;;;;;4985391;28;20054;-74
2022/04/05 06:16:47;;;;;;;20.73;4.35;;;7.00;99.90;;;;;;4995343;28;20046;-74
2022/04/05 06:19:12;;;;;;;15.95;4.57;;;7.10;99.90;;;;;;4981109;28;20224;-73
2022/04/05 06:21:38;;;;;;;15.20;4.80;;;7.10;99.90;;;;;;4995140;28;20418;-72
2022/04/05 06:24:04;;;;;;;17.27;5.07;;;7.10;99.90;;;;;;4962761;28;20512;-74
2022/04/05 06:26:29;;;;;;;22.58;4.50;;;7.10;99.90;;;;;;4995596;28;20053;-72
2022/04/05 06:28:56;;;;;;;16.92;4.40;;;7.10;99.90;;;;;;5005867;28;20069;-71
2022/04/05 06:31:22;;;;;;;15.13;4.70;;;7.20;99.90;;;;;;4979374;28;20136;-71
2022/04/05 06:33:48;;;;;;;15.35;4.10;;;7.20;99.90;;;;;;4995145;28;20046;-73
2022/04/05 06:36:13;;;;;;;15.30;3.55;;;7.20;99.90;;;;;;4995181;28;20038;-74
2022/04/05 06:38:39;;;;;;;13.30;3.67;;;7.30;99.90;;;;;;4975510;28;20050;-73
2022/04/05 06:41:05;;;;;;;16.08;3.42;;;7.40;99.90;;;;;;4978035;28;20110;-72
2022/04/05 06:43:30;;;;;;;15.25;3.47;;;7.40;99.90;;;;;;4994670;28;20387;-75
2022/04/05 06:45:56;;;;;;;15.13;3.67;;;7.50;99.90;;;;;;4977573;28;20133;-78
2022/04/05 06:48:22;;;;;;;17.33;3.85;;;7.80;99.90;;;;;;4961734;28;20450;-75
2022/04/05 06:50:50;;;;;;;14.80;3.45;;;7.60;99.90;;;;;;4977474;28;20042;-77
2022/04/05 06:53:16;;;;;;;17.65;3.20;;;7.70;99.90;;;;;;4993736;28;20092;-79
2022/04/05 06:55:42;;;;;;;18.83;3.60;;;7.70;99.90;;;;;;4961232;28;20043;-77
2022/04/05 06:58:08;;;;;;;17.10;3.50;;;7.80;99.90;;;;;;4977559;28;20413;-77
2022/04/05 07:00:34;;;;;;;16.02;3.42;;;8.00;99.90;;;;;;4976436;28;20038;-77
2022/04/05 07:03:00;;;;;;;16.73;4.63;;;8.10;99.90;;;;;;4999840;28;20042;-78
2022/04/05 07:05:27;;;;;;;15.70;3.83;;;8.30;99.90;;;;;;4980786;28;20374;-75
2022/04/05 07:07:53;;;;;;;12.40;5.00;;;8.50;99.90;;;;;;4963604;28;20076;-76
2022/04/05 07:10:19;;;;;;;14.35;4.35;;;8.60;99.90;;;;;;4978028;28;20467;-77
2022/04/05 07:12:46;;;;;;;11.30;3.75;;;8.70;99.90;;;;;;4977996;28;20370;-75
2022/04/05 07:15:12;;;;;;;15.80;4.38;;;8.70;99.90;;;;;;4994622;28;20046;-74
2022/04/05 07:17:38;;;;;;;16.30;3.95;;;8.70;99.90;;;;;;4978279;28;20050;-75
2022/04/05 07:20:09;;;;;;;12.43;3.63;;;8.70;99.90;;;;;;4986588;28;20046;-76
2022/04/05 07:22:48;;;;;;;9.95;3.25;;;8.70;99.90;;;;;;4977800;28;20046;-72
2022/04/05 07:25:15;;;;;;;13.25;3.70;;;8.70;99.90;;;;;;4991714;28;20038;-73
2022/04/05 07:27:41;;;;;;;10.43;2.92;;;8.70;99.90;;;;;;4974079;28;20078;-74
2022/04/05 07:30:08;;;;;;;17.25;3.33;;;8.70;99.90;;;;;;4992508;28;20081;-74
2022/04/05 07:32:38;;;;;;;12.63;3.38;;;8.70;99.90;;;;;;4970696;28;20046;-73
2022/04/05 07:35:04;;;;;;;9.05;2.78;;;8.70;99.90;;;;;;4981784;28;20133;-76
2022/04/05 07:37:30;;;;;;;10.57;3.08;;;8.80;99.90;;;;;;4997695;28;20042;-75
2022/04/05 07:39:58;;;;;;;14.88;3.05;;;8.70;99.90;;;;;;4961974;28;20119;-74
2022/04/05 07:42:24;;;;;;;9.88;2.50;;;8.80;99.90;;;;;;4996510;28;20049;-75
2022/04/05 07:44:50;;;;;;;14.77;3.20;;;8.80;99.90;;;;;;4977262;28;20089;-74
2022/04/05 07:47:16;;;;;;;12.98;3.08;;;8.70;99.90;;;;;;4994803;28;20065;-72
2022/04/05 07:49:41;;;;;;;13.55;3.42;;;8.70;99.90;;;;;;4997940;28;20062;-72
2022/04/05 07:52:07;;;;;;;11.65;3.20;;;8.60;99.90;;;;;;4981469;28;20104;-72
2022/04/05 07:54:33;;;;;;;11.00;3.50;;;8.90;99.90;;;;;;4997559;28;20058;-71
2022/04/05 07:57:00;;;;;;;11.90;3.33;;;8.90;99.90;;;;;;4976251;28;20065;-74
2022/04/05 07:59:26;;;;;;;13.18;3.75;;;8.70;99.90;;;;;;4980851;28;20042;-73
2022/04/05 08:01:52;;;;;;;8.23;3.47;;;8.70;99.90;;;;;;5001410;28;20128;-75
2022/04/05 08:04:17;;;;;;;10.90;3.25;;;8.70;99.90;;;;;;4994269;28;20439;-71
2022/04/05 08:06:43;;;;;;;10.85;4.65;;;8.70;99.90;;;;;;4980840;28;20085;-73
2022/04/05 08:09:08;;;;;;;11.25;3.60;;;8.60;99.90;;;;;;4961308;28;20105;-70
2022/04/05 08:11:34;;;;;;;9.82;3.20;;;8.70;99.90;;;;;;4980024;28;20386;-73
2022/04/05 08:14:00;;;;;;;16.85;4.38;;;8.60;99.90;;;;;;5008340;28;20558;-72
2022/04/05 08:16:26;;;;;;;13.23;3.95;;;8.70;99.90;;;;;;4997637;28;20375;-72
2022/04/05 08:18:52;;;;;;;10.20;3.53;;;8.80;99.90;;;;;;4997193;28;20042;-74
2022/04/05 08:21:18;;;;;;;12.98;3.65;;;8.80;99.90;;;;;;4980737;28;20366;-73
2022/04/05 08:23:44;;;;;;;13.43;3.40;;;8.90;99.90;;;;;;4980410;28;20378;-72
2022/04/05 08:26:10;;;;;;;13.02;3.22;;;8.90;99.90;;;;;;4980008;28;20038;-73
2022/04/05 08:28:35;;;;;;;13.80;3.40;;;9.00;99.90;;;;;;4980782;28;20422;-74
2022/04/05 08:31:01;;;;;;;7.10;3.42;;;9.00;99.90;;;;;;4980111;28;20078;-72
2022/04/05 08:33:27;;;;;;;7.63;3.20;;;9.00;99.90;;;;;;4980410;28;20092;-74
2022/04/05 08:35:54;;;;;;;12.98;3.33;;;9.10;99.90;;;;;;4980386;28;20054;-74
2022/04/05 08:38:20;;;;;;;8.85;2.75;;;9.10;99.90;;;;;;4980585;28;20073;-73
2022/04/05 08:40:45;;;;;;;9.13;3.25;;;9.20;99.90;;;;;;4976931;28;20050;-75
2022/04/05 08:43:11;;;;;;;10.18;2.80;;;9.30;99.90;;;;;;4973453;28;20050;-74
2022/04/05 08:45:37;;;;;;;11.40;3.33;;;9.30;99.90;;;;;;4988258;28;20061;-73
2022/04/05 08:48:09;;;;;;;13.48;3.05;;;9.30;99.90;;;;;;4974347;28;20058;-74
2022/04/05 08:50:35;;;;;;;9.88;2.92;;;9.40;99.90;;;;;;4997344;28;20050;-73
2022/04/05 08:53:01;;;;;;;11.70;3.25;;;9.60;99.90;;;;;;4997535;28;20342;-72
2022/04/05 08:55:28;;;;;;;6.82;2.70;;;9.70;99.90;;;;;;4996877;28;20092;-75
2022/04/05 08:57:56;;;;;;;7.88;2.40;;;9.90;99.90;;;;;;4997602;28;20043;-74
2022/04/05 09:00:23;;;;;;;9.48;2.40;;;10.10;99.90;;;;;;4979283;28;20129;-74
2022/04/05 09:03:05;;;;;;;9.43;2.85;;;10.30;99.90;;;;;;4980269;28;20125;-72
2022/04/05 09:05:45;;;;;;;8.93;2.50;;;10.40;99.90;;;;;;4997389;28;20447;-74
2022/04/05 09:08:16;;;;;;;8.25;2.60;;;10.60;99.90;;;;;;4979471;28;20089;-73
2022/04/05 09:10:43;;;;;;;7.95;1.70;;;10.60;99.90;;;;;;4997319;28;20077;-75
2022/04/05 09:13:15;;;;;;;5.60;2.35;;;10.50;99.90;;;;;;4997045;28;20038;-75
2022/04/05 09:15:42;;;;;;;6.53;2.20;;;10.50;99.90;;;;;;4964502;28;20112;-72
2022/04/05 09:18:08;;;;;;;6.47;2.38;;;10.50;99.90;;;;;;4979884;28;20054;-74
2022/04/05 09:20:48;;;;;;;7.32;2.45;;;10.40;99.90;;;;;;4996730;28;20042;-74
2022/04/05 09:23:33;;;;;;;7.15;1.88;;;10.50;99.90;;;;;;4996720;28;20054;-74
2022/04/05 09:26:04;;;;;;;6.40;1.83;;;10.40;99.90;;;;;;4979854;28;20054;-72
2022/04/05 09:28:42;;;;;;;8.13;1.92;;;10.40;99.90;;;;;;4996941;28;20363;-72
2022/04/05 09:31:10;;;;;;;5.68;2.15;;;10.40;99.90;;;;;;4978833;28;20473;-74
2022/04/05 09:33:38;;;;;;;6.63;1.73;;;10.60;99.90;;;;;;4996753;28;20149;-74
2022/04/05 09:36:15;;;;;;;6.72;1.85;;;10.60;99.90;;;;;;4996780;28;20047;-72
2022/04/05 09:38:44;;;;;;;5.75;1.85;;;10.40;99.90;;;;;;4996569;28;20415;-74
2022/04/05 09:41:09;;;;;;;6.57;1.73;;;10.30;99.90;;;;;;4979611;28;20058;-72
2022/04/05 09:43:35;;;;;;;6.30;2.00;;;10.30;99.90;;;;;;4996518;28;20105;-72
2022/04/05 09:46:02;;;;;;;5.47;1.90;;;10.30;99.90;;;;;;4996252;28;20034;-73
2022/04/05 09:48:35;;;;;;;6.47;1.67;;;10.30;99.90;;;;;;4996158;28;20051;-77
2022/04/05 09:51:09;;;;;;;5.25;2.00;;;10.40;99.90;;;;;;4996312;28;20058;-72
2022/04/05 09:53:57;;;;;;;4.47;1.70;;;10.40;99.90;;;;;;4995718;28;20046;-72
2022/04/05 09:56:34;;;;;;;8.45;1.88;;;10.30;99.90;;;;;;4995993;28;20061;-75
2022/04/05 09:59:11;;;;;;;6.00;1.90;;;10.20;99.90;;;;;;4995694;28;20056;-74
2022/04/05 10:01:36;;;;;;;6.28;2.08;;;10.10;99.90;;;;;;4979464;28;20054;-73
2022/04/05 10:04:08;;;;;;;6.82;2.28;;;10.10;99.90;;;;;;4996197;28;20051;-74
2022/04/05 10:06:38;;;;;;;6.20;2.20;;;10.00;99.90;;;;;;4978596;28;20061;-72
2022/04/05 10:09:04;;;;;;;6.20;1.77;;;10.00;99.90;;;;;;4978830;28;20049;-75
2022/04/05 10:11:32;;;;;;;3.47;1.50;;;10.10;99.90;;;;;;4978641;28;20073;-72
2022/04/05 10:13:59;;;;;;;3.97;1.70;;;10.10;99.90;;;;;;4996111;28;20430;-73
2022/04/05 10:16:29;;;;;;;5.22;1.92;;;10.10;99.90;;;;;;4996070;28;20053;-74
2022/04/05 10:19:04;;;;;;;3.65;1.92;;;10.10;99.90;;;;;;4978647;28;20355;-72
2022/04/05 10:21:34;;;;;;;5.97;1.90;;;10.10;99.90;;;;;;4978920;28;20046;-72
2022/04/05 10:24:00;;;;;;;4.50;1.70;;;10.20;99.90;;;;;;4995697;28;20046;-74
2022/04/05 10:26:31;;;;;;;4.85;1.90;;;10.30;99.90;;;;;;4995914;28;20124;-72
2022/04/05 10:29:00;;;;;;;5.63;2.03;;;10.40;99.90;;;;;;4995439;28;20050;-73
2022/04/05 10:31:42;;;;;;;5.43;1.70;;;10.40;99.90;;;;;;4959153;28;20086;-73
2022/04/05 10:34:25;;;;;;;2.50;1.30;;;10.60;99.90;;;;;;4975538;28;20070;-71
2022/04/05 10:37:16;;;;;;;3.53;1.60;;;10.40;99.90;;;;;;4976384;28;20130;-74
2022/04/05 10:39:42;;;;;;;4.13;1.40;;;10.40;99.90;;;;;;4975836;28;20108;-76
2022/04/05 10:42:15;;;;;;;4.72;1.60;;;10.30;99.90;;;;;;4958759;28;20054;-75
2022/04/05 10:44:50;;;;;;;6.05;1.75;;;10.30;99.90;;;;;;4976066;28;20451;-75
2022/04/05 10:47:15;;;;;;;5.75;1.70;;;10.30;99.90;;;;;;4975062;28;20131;-74
2022/04/05 10:49:43;;;;;;;5.13;1.80;;;10.30;99.90;;;;;;4976064;28;20145;-73
2022/04/05 10:52:20;;;;;;;4.63;1.38;;;10.30;99.90;;;;;;4976036;28;20047;-73
2022/04/05 10:54:50;;;;;;;2.25;1.30;;;10.50;99.90;;;;;;4958675;28;20058;-72
2022/04/05 10:57:43;;;;;;;2.92;1.20;;;10.60;99.90;;;;;;4975718;28;20046;-75
2022/04/05 11:00:23;;;;;;;3.07;1.33;;;10.60;99.90;;;;;;4985510;28;20089;-73
2022/04/05 11:02:57;;;;;;;3.80;1.70;;;10.70;99.90;;;;;;4977746;28;20505;-72
2022/04/05 11:05:24;;;;;;;5.30;1.60;;;10.90;99.90;;;;;;4997703;28;20367;-74
2022/04/05 11:07:52;;;;;;;2.58;1.38;;;11.10;99.90;;;;;;4998969;28;20092;-73
2022/04/05 11:10:26;;;;;;;4.15;1.50;;;11.20;99.90;;;;;;4981955;28;20089;-74
2022/04/05 11:13:18;;;;;;;3.80;1.40;;;11.20;99.90;;;;;;4999497;28;20046;-73
2022/04/05 11:15:46;;;;;;;4.28;1.50;;;11.10;99.90;;;;;;4998898;28;20050;-73
2022/04/05 11:18:20;;;;;;;2.28;1.20;;;11.20;99.90;;;;;;4999006;28;20142;-72
2022/04/05 11:20:47;;;;;;;3.13;1.25;;;11.20;99.90;;;;;;4998857;28;20470;-73
2022/04/05 11:23:15;;;;;;;2.13;1.20;;;11.30;99.90;;;;;;4981963;28;20042;-74
2022/04/05 11:25:43;;;;;;;2.42;1.40;;;11.40;99.90;;;;;;4999079;28;20042;-75
2022/04/05 11:28:11;;;;;;;4.50;1.40;;;11.60;99.90;;;;;;4979294;28;20133;-74
2022/04/05 11:30:45;;;;;;;2.72;1.58;;;11.90;99.90;;;;;;4998583;28;20054;-74
2022/04/05 11:33:18;;;;;;;3.20;1.60;;;12.10;99.90;;;;;;4963890;28;20065;-74
2022/04/05 11:35:47;;;;;;;3.03;1.60;;;12.20;99.90;;;;;;4998785;28;20196;-75
2022/04/05 11:38:19;;;;;;;2.80;1.80;;;12.40;99.90;;;;;;4998598;28;20092;-74
2022/04/05 11:41:17;;;;;;;3.75;2.22;;;12.50;99.90;;;;;;4998840;28;20049;-73
2022/04/05 11:43:46;;;;;;;2.00;1.23;;;12.60;99.90;;;;;;4998540;28;20486;-75
2022/04/05 11:46:34;;;;;;;3.08;1.48;;;12.50;99.90;;;;;;4998879;28;20050;-73
2022/04/05 11:49:06;;;;;;;2.70;1.45;;;12.30;99.90;;;;;;4993122;28;20084;-73
2022/04/05 11:51:34;;;;;;;2.28;1.35;;;12.10;99.90;;;;;;4981907;28;20053;-73
2022/04/05 11:54:23;;;;;;;2.55;1.70;;;12.00;99.90;;;;;;4981255;28;20458;-74
2022/04/05 11:56:50;;;;;;;4.25;1.60;;;11.90;99.90;;;;;;4998277;28;20105;-73
2022/04/05 11:59:24;;;;;;;2.63;1.58;;;11.90;99.90;;;;;;4998054;28;20039;-74
2022/04/05 12:01:50;;;;;;;3.67;1.67;;;11.90;99.90;;;;;;4981466;28;20074;-74
2022/04/05 12:04:20;;;;;;;2.28;1.48;;;12.10;99.90;;;;;;4980842;28;20042;-75
2022/04/05 12:06:58;;;;;;;2.58;1.40;;;12.20;99.90;;;;;;4998482;28;20371;-74
2022/04/05 12:09:26;;;;;;;2.00;1.40;;;12.20;99.90;;;;;;4980846;28;20057;-74
2022/04/05 12:11:53;;;;;;;2.22;1.30;;;12.20;99.90;;;;;;4997962;28;20451;-75
2022/04/05 12:14:21;;;;;;;3.50;1.60;;;12.20;99.90;;;;;;4981148;28;20057;-74
2022/04/05 12:16:51;;;;;;;2.53;1.40;;;12.20;99.90;;;;;;4997611;28;20054;-75
2022/04/05 12:19:17;;;;;;;3.13;1.50;;;12.20;99.90;;;;;;4998055;28;20070;-74
2022/04/05 12:21:43;;;;;;;2.30;1.60;;;12.20;99.90;;;;;;4997933;28;20084;-74
2022/04/05 12:24:08;;;;;;;2.83;1.70;;;12.30;99.90;;;;;;4991771;28;20047;-77
2022/04/05 12:26:34;;;;;;;2.50;1.60;;;12.30;99.90;;;;;;4997851;28;20041;-74
2022/04/05 12:29:00;;;;;;;2.38;1.63;;;12.20;99.90;;;;;;4997925;28;20038;-76
2022/04/05 12:31:30;;;;;;;2.55;1.50;;;12.10;99.90;;;;;;4997803;28;20043;-73
2022/04/05 12:34:11;;;;;;;2.35;1.70;;;12.10;99.90;;;;;;4997729;28;20104;-75
2022/04/05 12:36:58;;;;;;;2.88;1.75;;;12.10;99.90;;;;;;4980410;28;20402;-74
2022/04/05 12:39:26;;;;;;;2.67;1.80;;;12.20;99.90;;;;;;4980865;28;20467;-74
2022/04/05 12:41:56;;;;;;;3.05;1.70;;;12.20;99.90;;;;;;4994854;28;20447;-74
2022/04/05 12:44:22;;;;;;;2.35;1.70;;;12.20;99.90;;;;;;4979980;28;20061;-75
2022/04/05 12:46:49;;;;;;;3.95;2.20;;;12.20;99.90;;;;;;4980640;28;20042;-73
2022/04/05 12:49:16;;;;;;;4.13;2.00;;;12.20;99.90;;;;;;4993561;28;20054;-75
2022/04/05 12:51:42;;;;;;;3.03;2.10;;;12.30;99.90;;;;;;4997184;28;20105;-74